Time;durP1;ratioP1;P1;durP2;ratioP2;P2;SDS_P1;SDS_P2;PMS_P1;PMS_P2;Temp;Humidity;BMP_temperature;BMP_pressure;BME280_temperature;BME280_humidity;BME280_pressure;Samples;Min_cycle;Max_cycle;Signal;HPM_P1;HPM_P2
2022/05/27 00:02:25;;;;;;;2.20;0.95;;;15.30;99.90;;;;;;5039305;28;20128;-55
2022/05/27 00:04:52;;;;;;;3.17;0.98;;;15.40;99.90;;;;;;5035673;28;20084;-54
2022/05/27 00:07:19;;;;;;;0.68;0.50;;;15.40;99.90;;;;;;5045819;28;20144;-57
2022/05/27 00:09:46;;;;;;;1.58;1.10;;;15.30;99.90;;;;;;5042427;28;20076;-58
2022/05/27 00:12:12;;;;;;;1.70;0.80;;;15.40;99.90;;;;;;5040586;28;20587;-56
2022/05/27 00:14:39;;;;;;;2.63;0.80;;;15.50;99.90;;;;;;5049769;28;20132;-56
2022/05/27 00:17:06;;;;;;;2.20;1.00;;;15.50;99.90;;;;;;5042042;28;20052;-56
2022/05/27 00:19:33;;;;;;;4.78;1.17;;;15.50;99.90;;;;;;5045733;28;20798;-58
2022/05/27 00:22:00;;;;;;;1.90;0.80;;;15.50;99.90;;;;;;5049925;28;20080;-52
2022/05/27 00:24:26;;;;;;;1.67;0.73;;;15.50;99.90;;;;;;5049853;28;20077;-55
2022/05/27 00:26:53;;;;;;;3.10;0.75;;;15.40;99.90;;;;;;5047511;28;20132;-54
2022/05/27 00:29:20;;;;;;;1.85;1.00;;;15.40;99.90;;;;;;5049623;28;20168;-58
2022/05/27 00:31:46;;;;;;;2.95;0.90;;;15.50;99.90;;;;;;5043019;28;20077;-56
2022/05/27 00:34:14;;;;;;;1.58;0.63;;;15.40;99.90;;;;;;5043663;28;20133;-57
2022/05/27 00:36:41;;;;;;;1.57;0.60;;;15.50;99.90;;;;;;4699943;28;9999894;-57
2022/05/27 00:39:08;;;;;;;2.10;0.50;;;15.50;99.90;;;;;;5065968;28;20131;-62
2022/05/27 00:41:35;;;;;;;1.48;0.60;;;15.50;99.90;;;;;;5069563;28;20092;-56
2022/05/27 00:44:01;;;;;;;2.22;0.63;;;15.50;99.90;;;;;;5069494;28;20079;-55
2022/05/27 00:46:30;;;;;;;1.98;0.77;;;15.40;99.90;;;;;;5051706;28;20049;-56
2022/05/27 00:49:18;;;;;;;0.93;0.40;;;15.50;99.90;;;;;;5042177;28;20084;-54
2022/05/27 00:51:50;;;;;;;3.15;1.33;;;15.50;99.90;;;;;;5031805;28;20136;-57
2022/05/27 00:54:19;;;;;;;2.30;0.50;;;15.40;99.90;;;;;;5016900;28;20080;-55
2022/05/27 00:56:50;;;;;;;0.52;0.38;;;15.50;99.90;;;;;;5061177;28;20041;-56
2022/05/27 00:59:49;;;;;;;0.98;0.60;;;15.40;99.90;;;;;;5041339;28;20088;-54
2022/05/27 01:02:17;;;;;;;2.30;0.60;;;15.50;99.90;;;;;;5027134;28;20452;-56
2022/05/27 01:04:44;;;;;;;2.67;1.00;;;15.40;99.90;;;;;;5029272;28;20053;-56
2022/05/27 01:07:11;;;;;;;0.85;0.50;;;15.40;99.90;;;;;;5038268;28;20461;-57
2022/05/27 01:09:38;;;;;;;2.40;0.68;;;15.40;99.90;;;;;;5048537;28;20072;-56
2022/05/27 01:12:19;;;;;;;4.72;1.08;;;15.30;99.90;;;;;;5047037;28;20048;-57
2022/05/27 01:14:52;;;;;;;1.65;0.57;;;15.30;99.90;;;;;;5047611;28;20084;-59
2022/05/27 01:17:24;;;;;;;4.20;1.85;;;15.30;99.90;;;;;;5048897;28;20041;-56
2022/05/27 01:20:21;;;;;;;1.80;0.77;;;15.30;99.90;;;;;;5036301;28;20137;-56
2022/05/27 01:23:12;;;;;;;0.75;0.75;;;15.20;99.90;;;;;;5042656;28;20053;-55
2022/05/27 01:26:09;;;;;;;4.90;0.93;;;15.20;99.90;;;;;;5048606;28;20110;-57
2022/05/27 01:28:38;;;;;;;1.45;0.60;;;15.10;99.90;;;;;;5032656;28;20053;-57
2022/05/27 01:31:43;;;;;;;0.73;0.55;;;15.00;99.90;;;;;;5047901;28;20084;-57
2022/05/27 01:34:12;;;;;;;1.13;0.82;;;15.00;99.90;;;;;;5048810;28;20483;-57
2022/05/27 01:36:42;;;;;;;1.83;0.70;;;14.90;99.90;;;;;;5047994;28;20132;-56
2022/05/27 01:39:23;;;;;;;1.67;0.70;;;14.80;99.90;;;;;;5048249;28;20128;-56
2022/05/27 01:42:19;;;;;;;5.32;0.82;;;14.80;99.90;;;;;;5047366;28;20081;-57
2022/05/27 01:45:15;;;;;;;2.50;0.82;;;14.80;99.90;;;;;;5047705;28;20068;-56
2022/05/27 01:47:45;;;;;;;3.80;1.10;;;14.80;99.90;;;;;;5033668;28;20132;-57
2022/05/27 01:50:14;;;;;;;2.95;1.02;;;14.80;99.90;;;;;;5048429;28;20227;-57
2022/05/27 01:53:03;;;;;;;2.40;1.30;;;14.80;99.90;;;;;;5046910;28;20136;-57
2022/05/27 01:55:36;;;;;;;1.33;0.90;;;14.80;99.90;;;;;;5047999;28;20059;-57
2022/05/27 01:58:17;;;;;;;2.00;0.85;;;14.80;99.90;;;;;;5047112;28;20092;-58
2022/05/27 02:00:43;;;;;;;2.45;1.08;;;14.70;99.90;;;;;;5047065;28;20057;-57
2022/05/27 02:03:24;;;;;;;2.97;0.90;;;14.70;99.90;;;;;;5043578;28;20045;-58
2022/05/27 02:05:58;;;;;;;3.05;1.15;;;14.70;99.90;;;;;;5044486;28;20056;-54
2022/05/27 02:08:38;;;;;;;4.18;1.00;;;14.70;99.90;;;;;;5045668;28;20140;-52
2022/05/27 02:11:10;;;;;;;3.65;1.35;;;14.70;99.90;;;;;;5031281;28;20483;-55
2022/05/27 02:13:57;;;;;;;1.75;0.90;;;14.60;99.90;;;;;;5037837;28;20095;-54
2022/05/27 02:16:32;;;;;;;1.85;0.90;;;14.60;99.90;;;;;;5047424;28;20140;-56
2022/05/27 02:19:04;;;;;;;3.08;1.35;;;14.50;99.90;;;;;;5046697;28;20104;-56
2022/05/27 02:21:52;;;;;;;2.45;1.00;;;14.50;99.90;;;;;;5047964;28;20045;-55
2022/05/27 02:24:21;;;;;;;1.77;1.20;;;14.50;99.90;;;;;;5080045;28;20132;-54
2022/05/27 02:26:56;;;;;;;3.00;1.52;;;14.50;99.90;;;;;;5046613;28;20328;-55
2022/05/27 02:29:28;;;;;;;4.05;1.20;;;14.50;99.90;;;;;;5046765;28;20474;-55
2022/05/27 02:31:57;;;;;;;1.90;1.05;;;14.50;99.90;;;;;;5043845;28;20049;-55
2022/05/27 02:37:34;;;;;;;8.60;1.17;;;14.50;99.90;;;;;;5056460;28;20081;-56
2022/05/27 02:40:07;;;;;;;3.00;1.35;;;14.40;99.90;;;;;;5042786;28;20089;-56
2022/05/27 02:43:06;;;;;;;6.73;1.37;;;14.40;99.90;;;;;;5026301;28;20049;-55
2022/05/27 02:45:45;;;;;;;1.58;0.95;;;14.40;99.90;;;;;;4991349;28;20293;-57
2022/05/27 02:48:24;;;;;;;2.42;0.93;;;14.40;99.90;;;;;;5036766;28;20054;-56
2022/05/27 02:50:58;;;;;;;1.00;0.88;;;14.30;99.90;;;;;;5026356;28;20058;-56
2022/05/27 02:53:44;;;;;;;2.28;1.17;;;14.30;99.90;;;;;;5036353;28;20107;-56
2022/05/27 02:56:29;;;;;;;2.35;1.10;;;14.30;99.90;;;;;;5046373;28;20128;-56
2022/05/27 02:58:56;;;;;;;3.22;1.70;;;14.30;99.90;;;;;;5046477;28;20140;-57
2022/05/27 03:01:23;;;;;;;3.85;1.25;;;14.20;99.90;;;;;;5047670;28;20088;-58
2022/05/27 03:03:50;;;;;;;1.90;1.17;;;14.20;99.90;;;;;;5047518;28;20053;-55
2022/05/27 03:06:27;;;;;;;4.53;1.30;;;14.10;99.90;;;;;;5047566;28;20453;-56
2022/05/27 03:08:57;;;;;;;4.57;1.45;;;14.20;99.90;;;;;;5046213;28;20128;-56
2022/05/27 03:11:35;;;;;;;2.85;1.38;;;14.20;99.90;;;;;;5047519;28;20147;-57
2022/05/27 03:14:20;;;;;;;2.90;1.50;;;14.10;99.90;;;;;;5047218;28;20091;-55
2022/05/27 03:16:49;;;;;;;6.60;1.65;;;14.10;99.90;;;;;;5027576;28;20133;-56
2022/05/27 03:19:35;;;;;;;2.15;1.10;;;14.10;99.90;;;;;;5027473;28;20100;-55
2022/05/27 03:22:39;;;;;;;3.13;1.13;;;14.20;99.90;;;;;;5027148;28;20085;-57
2022/05/27 03:25:29;;;;;;;2.05;1.25;;;14.10;99.90;;;;;;5042510;28;20508;-56
2022/05/27 03:28:40;;;;;;;7.10;1.40;;;14.10;99.90;;;;;;5025954;28;20474;-56
2022/05/27 03:31:17;;;;;;;3.22;1.50;;;14.10;99.90;;;;;;4985528;28;20049;-56
2022/05/27 03:33:58;;;;;;;1.80;1.15;;;14.10;99.90;;;;;;5041442;28;20048;-57
2022/05/27 03:37:01;;;;;;;2.72;1.45;;;14.10;99.90;;;;;;5048733;28;20079;-57
2022/05/27 03:39:47;;;;;;;3.60;1.25;;;14.10;99.90;;;;;;5049753;28;20455;-56
2022/05/27 03:42:14;;;;;;;3.42;1.65;;;14.10;99.90;;;;;;5050820;28;20142;-57
2022/05/27 03:44:49;;;;;;;5.97;2.05;;;14.10;99.90;;;;;;5049076;28;20076;-56
2022/05/27 03:47:17;;;;;;;4.15;1.50;;;14.00;99.90;;;;;;5028822;28;20080;-56
2022/05/27 03:49:44;;;;;;;3.38;1.33;;;14.00;99.90;;;;;;5050274;28;20071;-57
2022/05/27 03:52:21;;;;;;;1.63;1.20;;;14.00;99.90;;;;;;5050486;28;20619;-54
2022/05/27 03:54:48;;;;;;;4.13;1.27;;;14.00;99.90;;;;;;5050319;28;20088;-55
2022/05/27 03:57:14;;;;;;;2.42;1.25;;;13.90;99.90;;;;;;5050399;28;20560;-56
2022/05/27 03:59:41;;;;;;;6.40;1.90;;;13.90;99.90;;;;;;5050367;28;20045;-56
2022/05/27 04:02:09;;;;;;;6.25;1.50;;;13.90;99.90;;;;;;5050401;28;20063;-55
2022/05/27 04:04:36;;;;;;;2.05;1.42;;;13.90;99.90;;;;;;5030153;28;20053;-58
2022/05/27 04:07:03;;;;;;;4.82;1.73;;;13.90;99.90;;;;;;5048522;28;20492;-57
2022/05/27 04:09:30;;;;;;;2.50;1.40;;;13.90;99.90;;;;;;5048704;28;20107;-54
2022/05/27 04:11:57;;;;;;;5.40;1.95;;;13.90;99.90;;;;;;5032397;28;20149;-56
2022/05/27 04:14:24;;;;;;;5.63;1.77;;;13.90;99.90;;;;;;5042242;28;20080;-57
2022/05/27 04:16:50;;;;;;;5.47;1.70;;;13.90;99.90;;;;;;5050016;28;20081;-54
2022/05/27 04:19:17;;;;;;;3.53;1.58;;;13.80;99.90;;;;;;5050163;28;20041;-55
2022/05/27 04:21:44;;;;;;;3.35;1.70;;;13.80;99.90;;;;;;5034015;28;20084;-55
2022/05/27 04:24:11;;;;;;;2.45;1.55;;;13.80;99.90;;;;;;5047812;28;20140;-55
2022/05/27 04:26:38;;;;;;;2.83;1.25;;;13.80;99.90;;;;;;5050064;28;20140;-54
2022/05/27 04:29:05;;;;;;;1.63;1.35;;;13.80;99.90;;;;;;5049812;28;20200;-55
2022/05/27 04:31:31;;;;;;;1.75;1.17;;;13.80;99.90;;;;;;5044404;28;20149;-55
2022/05/27 04:33:58;;;;;;;4.35;1.58;;;13.80;99.90;;;;;;5048315;28;20470;-56
2022/05/27 04:36:25;;;;;;;4.03;1.60;;;13.80;99.90;;;;;;5049695;28;20135;-56
2022/05/27 04:38:52;;;;;;;5.20;1.40;;;13.80;99.90;;;;;;5049592;28;20412;-56
2022/05/27 04:41:24;;;;;;;1.92;1.15;;;13.80;99.90;;;;;;5049555;28;20496;-56
2022/05/27 04:43:51;;;;;;;2.38;1.20;;;13.80;99.90;;;;;;5049521;28;20049;-55
2022/05/27 04:46:18;;;;;;;3.78;1.38;;;13.80;99.90;;;;;;5040638;28;20072;-58
2022/05/27 04:48:45;;;;;;;2.90;1.30;;;13.80;99.90;;;;;;5040728;28;20095;-55
2022/05/27 04:51:11;;;;;;;4.68;1.60;;;13.80;99.90;;;;;;5049315;28;20139;-57
2022/05/27 04:53:39;;;;;;;2.97;1.23;;;13.80;99.90;;;;;;5042764;28;20076;-56
2022/05/27 04:56:07;;;;;;;3.83;1.70;;;13.90;99.90;;;;;;5049471;28;20045;-55
2022/05/27 04:58:34;;;;;;;3.42;1.80;;;13.90;99.90;;;;;;5048338;28;20135;-54
2022/05/27 05:01:00;;;;;;;2.90;1.42;;;13.90;99.90;;;;;;5044687;28;20064;-55
2022/05/27 05:03:27;;;;;;;8.07;2.53;;;13.90;99.90;;;;;;5042102;28;20049;-56
2022/05/27 05:05:54;;;;;;;6.50;1.55;;;13.90;99.90;;;;;;5048782;28;20776;-55
2022/05/27 05:08:33;;;;;;;1.95;1.35;;;13.90;99.90;;;;;;5048780;28;20134;-56
2022/05/27 05:11:01;;;;;;;5.50;1.90;;;13.90;99.90;;;;;;5047654;28;20053;-55
2022/05/27 05:13:33;;;;;;;3.17;1.90;;;13.90;99.90;;;;;;5049130;28;20470;-55
2022/05/27 05:16:00;;;;;;;2.92;1.30;;;13.90;99.90;;;;;;5049032;28;20119;-55
2022/05/27 05:18:27;;;;;;;4.38;2.10;;;13.90;99.90;;;;;;5048814;28;20048;-56
2022/05/27 05:20:55;;;;;;;6.88;1.75;;;14.00;99.90;;;;;;5048722;28;20152;-57
2022/05/27 05:23:22;;;;;;;3.28;1.40;;;14.00;99.90;;;;;;5049164;28;20132;-57
2022/05/27 05:25:49;;;;;;;4.55;1.75;;;14.00;99.90;;;;;;5048844;28;20131;-56
2022/05/27 05:28:16;;;;;;;3.45;1.85;;;14.00;99.90;;;;;;5048141;28;20582;-55
2022/05/27 05:30:42;;;;;;;2.05;1.48;;;14.00;99.90;;;;;;5043555;28;20041;-55
2022/05/27 05:33:09;;;;;;;3.88;1.45;;;14.00;99.90;;;;;;5039203;28;20045;-55
2022/05/27 05:35:36;;;;;;;2.97;1.15;;;14.00;99.90;;;;;;5044504;28;20057;-56
2022/05/27 05:38:03;;;;;;;3.53;1.52;;;14.00;99.90;;;;;;5048356;28;20151;-56
2022/05/27 05:40:30;;;;;;;10.98;1.98;;;14.00;99.90;;;;;;5048729;28;20059;-55
2022/05/27 05:43:00;;;;;;;2.58;1.77;;;14.00;99.90;;;;;;5041026;28;20567;-56
2022/05/27 05:45:27;;;;;;;6.05;1.63;;;14.20;99.90;;;;;;5041032;28;20065;-56
2022/05/27 05:47:54;;;;;;;6.00;1.50;;;14.20;99.90;;;;;;5036964;28;20055;-55
2022/05/27 05:50:20;;;;;;;4.22;1.50;;;14.20;99.90;;;;;;5048383;28;20059;-54
2022/05/27 05:52:47;;;;;;;8.20;1.90;;;14.20;99.90;;;;;;5048211;28;20053;-57
2022/05/27 05:55:15;;;;;;;4.65;2.00;;;14.30;99.90;;;;;;5047567;28;20085;-54
2022/05/27 05:57:42;;;;;;;5.20;1.75;;;14.50;99.90;;;;;;5039192;28;20140;-56
2022/05/27 06:00:11;;;;;;;6.50;1.77;;;14.50;99.90;;;;;;5045718;28;20051;-56
2022/05/27 06:02:37;;;;;;;13.00;4.38;;;14.50;99.90;;;;;;5039546;28;20084;-54
2022/05/27 06:05:05;;;;;;;9.35;2.42;;;14.50;99.90;;;;;;5039315;28;20045;-56
2022/05/27 06:07:32;;;;;;;4.90;1.77;;;14.50;99.90;;;;;;5047430;28;20049;-54
2022/05/27 06:10:00;;;;;;;3.83;1.25;;;14.50;99.90;;;;;;5048224;28;20542;-55
2022/05/27 06:12:27;;;;;;;5.78;1.85;;;14.50;99.90;;;;;;5039733;28;20052;-56
2022/05/27 06:14:54;;;;;;;5.85;1.80;;;14.40;99.90;;;;;;5040023;28;20151;-52
2022/05/27 06:17:21;;;;;;;11.07;2.80;;;14.40;99.90;;;;;;5034679;28;20092;-57
2022/05/27 06:19:48;;;;;;;10.65;2.00;;;14.50;99.90;;;;;;5030112;28;20078;-56
2022/05/27 06:22:15;;;;;;;9.63;2.45;;;14.60;99.90;;;;;;5043875;28;20076;-56
2022/05/27 06:24:41;;;;;;;8.52;1.80;;;14.70;99.90;;;;;;5047503;28;20045;-54
2022/05/27 06:27:08;;;;;;;5.80;1.75;;;14.70;99.90;;;;;;5045992;28;20144;-56
2022/05/27 06:35:06;;;;;;;5.63;1.67;;;14.60;99.90;;;;;;5045232;28;20080;-56
2022/05/27 06:37:33;;;;;;;5.45;1.75;;;14.70;99.90;;;;;;4695124;28;9999808;-57
2022/05/27 06:40:00;;;;;;;3.75;1.90;;;14.80;99.90;;;;;;5030677;28;20045;-56
2022/05/27 06:42:27;;;;;;;5.25;2.03;;;14.90;99.90;;;;;;5025811;28;20053;-57
2022/05/27 06:45:05;;;;;;;3.47;1.63;;;15.00;99.90;;;;;;5035868;28;20049;-54
2022/05/27 06:47:32;;;;;;;3.78;1.50;;;15.00;99.90;;;;;;5046272;28;20112;-54
2022/05/27 06:49:59;;;;;;;9.63;2.90;;;15.10;99.90;;;;;;5046462;28;20055;-57
2022/05/27 06:52:26;;;;;;;7.40;2.05;;;15.20;99.90;;;;;;5046929;28;20111;-55
2022/05/27 06:54:52;;;;;;;7.03;1.77;;;15.30;99.90;;;;;;5047015;28;20080;-55
2022/05/27 06:57:20;;;;;;;10.18;3.88;;;15.20;99.90;;;;;;5046018;28;20565;-65
2022/05/27 06:59:47;;;;;;;8.32;1.85;;;15.20;99.90;;;;;;5044792;28;20084;-56
2022/05/27 07:02:14;;;;;;;11.60;2.10;;;15.20;99.90;;;;;;5044235;28;20048;-56
2022/05/27 07:04:40;;;;;;;8.43;1.80;;;15.30;99.90;;;;;;5025357;28;20484;-55
2022/05/27 07:07:07;;;;;;;6.93;2.30;;;15.40;99.90;;;;;;5024478;28;20137;-54
2022/05/27 07:09:37;;;;;;;5.72;1.90;;;15.40;99.90;;;;;;5044081;28;20103;-57
2022/05/27 07:12:06;;;;;;;6.78;1.88;;;15.40;99.90;;;;;;5049766;28;20049;-55
2022/05/27 07:14:32;;;;;;;5.85;1.63;;;15.20;99.90;;;;;;5048119;28;20049;-52
2022/05/27 07:16:59;;;;;;;7.22;2.08;;;15.10;99.90;;;;;;5049114;28;20089;-54
2022/05/27 07:19:35;;;;;;;6.90;2.00;;;15.20;99.90;;;;;;5048521;28;20041;-56
2022/05/27 07:22:02;;;;;;;12.10;2.42;;;15.00;99.90;;;;;;5048302;28;20500;-58
2022/05/27 07:24:29;;;;;;;14.40;2.47;;;14.90;99.90;;;;;;5084206;28;20132;-56
2022/05/27 07:26:56;;;;;;;12.48;3.58;;;14.90;99.90;;;;;;5048302;28;20053;-55
2022/05/27 07:29:23;;;;;;;8.57;1.65;;;14.90;99.90;;;;;;5049187;28;20047;-56
2022/05/27 07:31:50;;;;;;;8.82;2.20;;;15.00;99.90;;;;;;5048828;28;20470;-53
2022/05/27 07:34:17;;;;;;;6.80;2.05;;;15.00;99.90;;;;;;5048916;28;20172;-56
2022/05/27 07:36:44;;;;;;;14.25;2.00;;;15.00;99.90;;;;;;5048918;28;20074;-55
2022/05/27 07:39:10;;;;;;;7.68;2.03;;;15.10;99.90;;;;;;5047666;28;20053;-53
2022/05/27 07:41:39;;;;;;;8.13;1.65;;;15.10;99.90;;;;;;5080251;28;20045;-55
2022/05/27 07:44:06;;;;;;;10.95;2.33;;;15.20;99.90;;;;;;5048598;28;20044;-50
2022/05/27 07:46:34;;;;;;;9.95;2.33;;;15.40;99.90;;;;;;5047099;28;20045;-56
2022/05/27 07:49:04;;;;;;;10.75;2.17;;;15.30;99.90;;;;;;5048577;28;20127;-54
2022/05/27 07:51:51;;;;;;;6.88;1.98;;;15.30;99.90;;;;;;5041667;28;20524;-54
2022/05/27 07:54:18;;;;;;;10.18;2.70;;;15.40;99.90;;;;;;5048430;28;20057;-56
2022/05/27 07:56:44;;;;;;;11.23;2.10;;;15.50;99.90;;;;;;5047394;28;20057;-55
2022/05/27 07:59:11;;;;;;;10.02;3.20;;;15.50;99.90;;;;;;5047596;28;20045;-56
2022/05/27 08:01:39;;;;;;;7.60;2.63;;;15.40;99.90;;;;;;5048517;28;20080;-56
2022/05/27 08:04:06;;;;;;;9.65;2.42;;;15.60;99.90;;;;;;5047977;28;20133;-56
2022/05/27 08:06:33;;;;;;;10.02;2.65;;;15.50;99.90;;;;;;5047934;28;20052;-54
2022/05/27 08:08:59;;;;;;;8.93;2.47;;;15.40;99.90;;;;;;5048162;28;20060;-54
2022/05/27 08:11:26;;;;;;;9.95;2.40;;;15.50;99.90;;;;;;5049112;28;20712;-55
2022/05/27 08:13:55;;;;;;;12.60;2.50;;;15.60;99.90;;;;;;5049330;28;20136;-54
2022/05/27 08:16:22;;;;;;;11.07;2.17;;;15.70;99.90;;;;;;5049636;28;20076;-55
2022/05/27 08:18:48;;;;;;;6.78;2.28;;;15.90;99.90;;;;;;5050010;28;20060;-57
2022/05/27 08:21:16;;;;;;;8.52;2.00;;;16.00;99.90;;;;;;5047737;28;20052;-54
2022/05/27 08:23:43;;;;;;;8.25;2.15;;;15.80;99.90;;;;;;5060687;28;20048;-58
2022/05/27 08:26:10;;;;;;;13.05;2.03;;;15.90;99.90;;;;;;5048640;28;20052;-56
2022/05/27 08:28:37;;;;;;;14.77;4.53;;;16.10;99.90;;;;;;5048712;28;20049;-55
2022/05/27 08:31:04;;;;;;;8.70;2.58;;;16.10;99.90;;;;;;5048607;28;20059;-52
2022/05/27 08:39:10;;;;;;;7.10;2.10;;;16.10;99.90;;;;;;4695087;28;10001439;-56
2022/05/27 08:41:53;;;;;;;8.05;2.13;;;16.20;99.90;;;;;;5047519;28;20056;-57
2022/05/27 08:44:38;;;;;;;7.70;3.03;;;16.20;99.90;;;;;;5048713;28;20053;-57
2022/05/27 08:47:17;;;;;;;9.60;1.92;;;16.20;99.90;;;;;;5029705;28;20136;-51
2022/05/27 08:50:03;;;;;;;13.50;2.05;;;16.10;99.90;;;;;;5029580;28;20049;-51
2022/05/27 08:52:42;;;;;;;8.82;2.08;;;16.30;99.90;;;;;;5028595;28;20087;-53
2022/05/27 09:01:30;;;;;;;9.70;2.67;;;16.30;99.90;;;;;;5049281;28;20454;-50
2022/05/27 09:04:11;;;;;;;10.95;2.40;;;16.20;99.90;;;;;;5047699;28;20063;-57
2022/05/27 09:06:49;;;;;;;15.70;2.63;;;16.30;99.90;;;;;;5047983;28;20051;-54
2022/05/27 09:09:19;;;;;;;7.13;1.90;;;16.30;99.20;;;;;;5047924;28;20061;-56
2022/05/27 09:12:02;;;;;;;11.48;2.60;;;16.20;99.90;;;;;;5048843;28;20135;-53
2022/05/27 09:14:31;;;;;;;15.82;2.85;;;16.10;99.90;;;;;;5047926;28;20041;-54
2022/05/27 09:17:05;;;;;;;10.73;4.13;;;16.30;99.90;;;;;;5049306;28;20647;-55
2022/05/27 09:19:56;;;;;;;15.73;2.60;;;16.40;99.30;;;;;;5047158;28;20107;-55
2022/05/27 09:22:32;;;;;;;15.40;2.38;;;16.30;99.60;;;;;;5048888;28;20136;-53
2022/05/27 09:25:23;;;;;;;11.77;3.00;;;16.40;99.80;;;;;;5049058;28;20084;-54
2022/05/27 09:27:50;;;;;;;11.82;2.72;;;16.30;98.40;;;;;;5049369;28;20091;-55
2022/05/27 09:30:17;;;;;;;7.47;2.38;;;15.80;98.20;;;;;;5049056;28;20057;-55
2022/05/27 09:32:51;;;;;;;13.90;2.53;;;15.70;97.90;;;;;;5048382;28;20052;-53
2022/05/27 09:35:21;;;;;;;18.33;3.97;;;15.80;99.50;;;;;;5047276;28;20094;-53
2022/05/27 09:38:10;;;;;;;15.18;2.47;;;16.10;99.90;;;;;;5049052;28;20407;-53
2022/05/27 09:40:48;;;;;;;10.07;2.65;;;16.20;97.80;;;;;;5047435;28;20059;-50
2022/05/27 09:43:18;;;;;;;14.43;3.03;;;16.30;95.70;;;;;;5047472;28;20219;-51
2022/05/27 09:45:50;;;;;;;10.00;2.47;;;16.40;98.80;;;;;;5049129;28;20045;-53
2022/05/27 09:48:16;;;;;;;15.27;2.83;;;16.70;98.00;;;;;;5048935;28;20057;-50
2022/05/27 09:50:45;;;;;;;11.68;2.38;;;16.70;97.80;;;;;;5048335;28;20084;-52
2022/05/27 09:53:17;;;;;;;17.20;2.63;;;16.60;96.20;;;;;;5042838;28;20095;-53
2022/05/27 09:55:49;;;;;;;16.15;3.40;;;16.70;95.50;;;;;;5047269;28;20053;-51
2022/05/27 09:58:23;;;;;;;11.07;2.50;;;16.70;96.00;;;;;;5048614;28;20077;-55
2022/05/27 10:00:50;;;;;;;12.82;4.55;;;16.90;95.50;;;;;;5048653;28;20056;-51
2022/05/27 10:03:39;;;;;;;13.38;3.33;;;16.70;96.10;;;;;;5048231;28;20510;-54
2022/05/27 10:06:11;;;;;;;8.40;2.25;;;16.90;92.60;;;;;;5047878;28;20045;-54
2022/05/27 10:08:50;;;;;;;13.25;3.10;;;16.90;94.50;;;;;;5048338;28;20519;-57
2022/05/27 10:11:21;;;;;;;13.57;2.97;;;17.30;95.20;;;;;;5047201;28;20136;-53
2022/05/27 10:13:50;;;;;;;18.27;2.92;;;17.50;94.50;;;;;;5048264;28;20051;-54
2022/05/27 10:16:24;;;;;;;20.25;2.80;;;17.70;94.10;;;;;;5047050;28;20672;-55
2022/05/27 10:19:13;;;;;;;13.93;3.13;;;17.80;93.50;;;;;;5047799;28;20546;-54
2022/05/27 10:22:00;;;;;;;12.45;3.03;;;17.70;90.90;;;;;;5047719;28;20106;-56
2022/05/27 10:24:32;;;;;;;10.35;3.42;;;18.00;90.60;;;;;;5047938;28;20099;-55
2022/05/27 10:27:15;;;;;;;10.43;2.83;;;18.00;90.90;;;;;;5048076;28;20211;-56
2022/05/27 10:29:58;;;;;;;12.95;2.70;;;18.20;91.70;;;;;;5048036;28;20415;-55
2022/05/27 10:32:32;;;;;;;16.15;2.58;;;18.60;90.70;;;;;;5047764;28;20039;-57
2022/05/27 10:35:00;;;;;;;9.93;3.13;;;18.60;89.20;;;;;;5066247;28;20049;-61
2022/05/27 10:37:51;;;;;;;17.27;3.92;;;18.60;90.80;;;;;;5052978;28;20512;-54
2022/05/27 10:40:36;;;;;;;11.05;2.75;;;18.60;86.00;;;;;;5048107;28;20084;-57
2022/05/27 10:43:15;;;;;;;11.82;2.63;;;18.90;90.20;;;;;;5029762;28;20765;-57
2022/05/27 10:45:44;;;;;;;14.38;2.70;;;18.90;83.90;;;;;;5047075;28;20102;-55
2022/05/27 10:48:20;;;;;;;8.60;2.58;;;19.00;90.60;;;;;;5047734;28;20048;-56
2022/05/27 10:51:19;;;;;;;14.88;3.40;;;18.90;91.10;;;;;;5046282;28;20053;-56
2022/05/27 10:53:58;;;;;;;12.40;2.95;;;18.60;80.50;;;;;;5045644;28;20053;-55
2022/05/27 10:56:43;;;;;;;19.15;2.88;;;18.10;85.70;;;;;;5046212;28;20099;-55
2022/05/27 11:02:47;;;;;;;17.30;3.88;;;17.50;84.20;;;;;;5046543;28;20454;-56
2022/05/27 11:05:42;;;;;;;9.25;3.20;;;17.60;87.00;;;;;;5047852;28;20080;-55
2022/05/27 11:08:25;;;;;;;15.68;3.15;;;17.60;83.50;;;;;;5029525;28;20137;-53
2022/05/27 11:11:06;;;;;;;12.45;3.10;;;17.70;87.00;;;;;;5047643;28;20484;-56
2022/05/27 11:17:17;;;;;;;14.77;2.92;;;17.80;86.00;;;;;;5047532;28;20099;-57
2022/05/27 11:19:52;;;;;;;15.05;2.75;;;17.90;82.60;;;;;;5046084;28;20136;-56
2022/05/27 11:22:35;;;;;;;13.50;3.17;;;18.00;85.00;;;;;;5046005;28;20052;-55
2022/05/27 11:25:08;;;;;;;11.43;2.57;;;18.10;86.00;;;;;;5046268;28;20055;-56
2022/05/27 11:27:38;;;;;;;8.93;2.38;;;18.10;85.10;;;;;;5047173;28;20292;-57
2022/05/27 11:30:24;;;;;;;10.20;3.10;;;18.20;85.20;;;;;;5047262;28;20439;-55
2022/05/27 11:33:18;;;;;;;16.63;3.05;;;18.10;79.50;;;;;;5046697;28;20168;-63
2022/05/27 11:35:47;;;;;;;8.75;2.72;;;17.90;82.50;;;;;;5047160;28;20117;-54
2022/05/27 11:38:24;;;;;;;15.45;2.90;;;18.10;85.40;;;;;;5047588;28;20428;-55
2022/05/27 11:41:00;;;;;;;14.32;2.70;;;18.00;83.90;;;;;;5046095;28;20063;-55
2022/05/27 11:44:00;;;;;;;12.35;2.60;;;18.30;83.90;;;;;;5045819;28;20413;-55
2022/05/27 11:46:52;;;;;;;14.88;2.78;;;18.50;80.80;;;;;;5018414;28;20080;-58
2022/05/27 11:49:21;;;;;;;6.93;1.90;;;18.70;79.20;;;;;;5045991;28;20045;-54
2022/05/27 11:52:01;;;;;;;9.10;2.92;;;18.60;79.80;;;;;;5047246;28;20053;-54
2022/05/27 11:54:43;;;;;;;7.10;3.17;;;18.30;81.20;;;;;;5045284;28;20503;-57
2022/05/27 11:57:22;;;;;;;16.50;2.65;;;18.30;78.90;;;;;;5046796;28;20076;-57
2022/05/27 12:00:10;;;;;;;10.82;2.63;;;18.30;84.90;;;;;;5046067;28;20375;-56
2022/05/27 12:03:00;;;;;;;10.15;2.88;;;18.50;86.20;;;;;;5036599;28;20061;-55
2022/05/27 12:05:51;;;;;;;12.13;2.63;;;18.50;79.70;;;;;;5037660;28;20045;-52
2022/05/27 12:08:40;;;;;;;14.02;3.47;;;18.40;79.50;;;;;;5039349;28;20503;-55
2022/05/27 12:11:23;;;;;;;12.98;2.88;;;18.40;81.80;;;;;;5034444;28;20099;-52
2022/05/27 12:14:23;;;;;;;8.00;2.38;;;18.60;82.30;;;;;;5036332;28;20132;-56
2022/05/27 12:16:50;;;;;;;16.15;3.00;;;18.60;78.10;;;;;;5044273;28;21364;-56
2022/05/27 12:19:29;;;;;;;13.77;2.90;;;18.60;79.90;;;;;;5046519;28;20119;-56
2022/05/27 12:22:23;;;;;;;12.03;2.67;;;18.60;78.10;;;;;;5044892;28;20080;-55
2022/05/27 12:24:53;;;;;;;14.67;4.17;;;18.50;78.60;;;;;;5049064;28;20092;-55
2022/05/27 12:27:20;;;;;;;11.45;2.63;;;18.60;82.50;;;;;;5047594;28;20071;-54
2022/05/27 12:29:48;;;;;;;14.60;2.75;;;18.40;78.70;;;;;;5045673;28;20045;-56
2022/05/27 12:32:16;;;;;;;14.73;2.72;;;18.50;81.40;;;;;;5042757;28;20549;-56
2022/05/27 12:34:48;;;;;;;15.90;2.75;;;18.60;79.20;;;;;;5046575;28;20048;-55
2022/05/27 12:37:19;;;;;;;10.57;2.45;;;19.00;77.10;;;;;;5048226;28;20073;-54
2022/05/27 12:39:49;;;;;;;9.77;2.22;;;19.00;78.20;;;;;;5054397;28;20066;-60
2022/05/27 12:42:24;;;;;;;8.70;2.42;;;19.00;73.80;;;;;;5073467;28;20064;-53
2022/05/27 12:44:51;;;;;;;13.45;2.75;;;18.90;75.20;;;;;;4696189;28;9999801;-56
2022/05/27 12:47:39;;;;;;;15.38;2.38;;;19.00;77.20;;;;;;5046627;28;20056;-57
2022/05/27 12:50:17;;;;;;;9.32;2.50;;;19.00;76.90;;;;;;5045709;28;20141;-55
2022/05/27 12:52:56;;;;;;;11.38;2.67;;;19.00;72.40;;;;;;5045350;28;20049;-64
2022/05/27 13:02:16;;;;;;;12.73;3.22;;;19.40;73.50;;;;;;5025429;28;20505;-56
2022/05/27 13:04:57;;;;;;;11.77;3.30;;;19.60;74.10;;;;;;5042592;28;20053;-58
2022/05/27 13:07:35;;;;;;;12.40;2.72;;;19.60;74.60;;;;;;5033733;28;20136;-57
2022/05/27 13:10:17;;;;;;;11.15;2.60;;;19.70;74.90;;;;;;5046028;28;20146;-55
2022/05/27 13:12:52;;;;;;;10.73;2.78;;;19.90;74.80;;;;;;5046256;28;20071;-56
2022/05/27 13:16:07;;;;;;;14.13;3.30;;;20.10;76.70;;;;;;5045877;28;20060;-56
2022/05/27 13:18:48;;;;;;;12.52;2.33;;;19.90;68.50;;;;;;4981624;28;20074;-56
2022/05/27 13:21:34;;;;;;;13.13;1.92;;;19.90;70.50;;;;;;5028281;28;20091;-55
2022/05/27 13:24:21;;;;;;;11.20;3.00;;;19.90;65.50;;;;;;5044334;28;20057;-56
2022/05/27 13:26:54;;;;;;;19.13;2.50;;;19.70;61.90;;;;;;5045512;28;20087;-56
2022/05/27 13:29:31;;;;;;;11.27;2.65;;;19.70;65.90;;;;;;5044644;28;20076;-56
2022/05/27 13:32:08;;;;;;;7.80;2.28;;;19.80;68.20;;;;;;5045397;28;20084;-57
2022/05/27 13:34:53;;;;;;;20.42;4.07;;;20.10;66.30;;;;;;5045331;28;20057;-56
2022/05/27 13:37:38;;;;;;;15.15;2.83;;;19.90;63.00;;;;;;5044421;28;20123;-56
2022/05/27 13:40:07;;;;;;;17.75;2.80;;;19.90;64.70;;;;;;5044262;28;20052;-55
2022/05/27 13:42:36;;;;;;;7.88;1.75;;;20.10;70.30;;;;;;5043672;28;20800;-54
2022/05/27 13:45:12;;;;;;;8.65;2.40;;;20.20;66.80;;;;;;5043649;28;20049;-56
2022/05/27 13:47:54;;;;;;;15.50;2.90;;;20.20;70.30;;;;;;5044090;28;20106;-57
2022/05/27 13:50:30;;;;;;;23.52;3.58;;;20.60;67.10;;;;;;5041997;28;20076;-56
2022/05/27 13:52:57;;;;;;;9.32;2.35;;;20.60;63.50;;;;;;5044782;28;20538;-55